Time;durP1;ratioP1;P1;durP2;ratioP2;P2;SDS_P1;SDS_P2;PMS_P1;PMS_P2;Temp;Humidity;BMP_temperature;BMP_pressure;BME280_temperature;BME280_humidity;BME280_pressure;Samples;Min_cycle;Max_cycle;Signal;HPM_P1;HPM_P2
2021/03/15 05:10:15;;;;;;;1.30;1.30;;;5.50;99.90;;;;;;6065280;23;20175;31
2021/03/15 05:12:44;;;;;;;1.00;1.00;;;5.50;99.90;;;;;;4935793;29;20256;-78
2021/03/15 05:15:13;;;;;;;1.40;1.40;;;5.40;99.90;;;;;;4937525;29;20206;-78
2021/03/15 05:17:41;;;;;;;1.10;1.10;;;5.40;99.90;;;;;;4939852;29;20210;-77
2021/03/15 05:20:11;;;;;;;1.00;1.00;;;5.30;99.90;;;;;;4944179;29;20616;-77
2021/03/15 05:22:39;;;;;;;1.10;1.10;;;5.30;99.90;;;;;;4920800;29;20692;-77
2021/03/15 05:25:11;;;;;;;1.43;1.43;;;5.30;99.90;;;;;;4922654;29;20205;-76
2021/03/15 05:27:39;;;;;;;1.40;1.40;;;5.20;99.90;;;;;;4916973;29;20207;-77
2021/03/15 05:30:09;;;;;;;0.97;0.97;;;5.30;99.90;;;;;;4917080;29;20227;-77
2021/03/15 05:32:39;;;;;;;1.10;1.10;;;5.30;99.90;;;;;;4917101;29;20261;-76
2021/03/15 05:35:09;;;;;;;1.13;1.13;;;5.30;99.90;;;;;;4917308;29;20210;-77
2021/03/15 05:37:36;;;;;;;1.10;1.10;;;5.30;99.90;;;;;;4911010;29;20203;-77
2021/03/15 05:40:15;;;;;;;1.00;1.00;;;5.20;99.90;;;;;;4907265;29;20653;-77
2021/03/15 05:42:57;;;;;;;1.20;1.20;;;5.20;99.90;;;;;;4897787;29;20713;-77
2021/03/15 05:45:42;;;;;;;1.00;1.00;;;5.30;99.90;;;;;;4897816;29;20579;-77
2021/03/15 05:48:45;;;;;;;1.17;1.17;;;5.20;99.90;;;;;;4897403;29;20215;-77
2021/03/15 05:51:36;;;;;;;1.30;1.30;;;5.20;99.90;;;;;;4897370;29;20234;-78
2021/03/15 05:54:44;;;;;;;1.10;1.10;;;5.30;99.90;;;;;;4897581;29;20215;-77
2021/03/15 05:57:47;;;;;;;1.13;1.13;;;5.40;99.90;;;;;;4897378;29;20218;-78
2021/03/15 06:00:26;;;;;;;1.20;1.20;;;5.50;99.90;;;;;;4897409;29;20258;-77
2021/03/15 06:03:18;;;;;;;1.10;1.10;;;5.50;99.90;;;;;;4897145;29;20636;-77
2021/03/15 06:05:47;;;;;;;1.20;1.20;;;5.50;99.90;;;;;;4896333;29;20255;-78
2021/03/15 06:08:19;;;;;;;1.17;1.17;;;5.50;99.90;;;;;;4909866;29;20210;-77
2021/03/15 06:10:56;;;;;;;1.10;1.10;;;5.70;99.90;;;;;;4915494;29;20253;-78
2021/03/15 06:13:23;;;;;;;1.10;1.10;;;;;;;;;;4915542;29;20214;-77
2021/03/15 06:15:51;;;;;;;1.10;1.10;;;;;;;;;;4916644;29;20587;-77
2021/03/15 06:18:19;;;;;;;1.20;1.20;;;5.80;99.90;;;;;;4915790;29;20242;-78
2021/03/15 06:20:48;;;;;;;0.97;0.97;;;6.00;99.90;;;;;;4915237;29;20222;-78
2021/03/15 06:23:16;;;;;;;1.10;1.10;;;6.00;99.90;;;;;;4914929;29;20298;-77
2021/03/15 06:25:44;;;;;;;1.10;1.10;;;6.00;99.90;;;;;;4915121;29;20274;-78
2021/03/15 06:28:11;;;;;;;0.90;0.90;;;6.00;99.90;;;;;;4915121;29;20287;-77
2021/03/15 06:30:38;;;;;;;1.27;1.27;;;6.20;99.90;;;;;;4915296;29;20234;-77
2021/03/15 06:33:06;;;;;;;1.00;1.00;;;6.20;99.90;;;;;;4914917;29;20207;-77
2021/03/15 06:35:38;;;;;;;1.17;1.17;;;6.20;99.90;;;;;;4915668;29;20211;-78
2021/03/15 06:38:06;;;;;;;1.13;1.13;;;6.30;99.90;;;;;;4915102;29;20210;-77
2021/03/15 06:40:47;;;;;;;1.23;1.23;;;6.40;99.90;;;;;;4915107;29;20223;-77
2021/03/15 06:43:16;;;;;;;1.07;1.07;;;6.50;99.90;;;;;;4914760;29;20210;-77
2021/03/15 06:45:46;;;;;;;1.10;1.10;;;6.50;99.90;;;;;;4915458;29;20290;-78
2021/03/15 06:48:15;;;;;;;1.00;1.00;;;6.60;99.90;;;;;;4913986;29;20294;-79
2021/03/15 06:50:42;;;;;;;1.10;1.10;;;6.70;99.90;;;;;;4919321;29;20227;-81
2021/03/15 06:53:09;;;;;;;1.10;1.10;;;6.80;99.90;;;;;;4925113;29;20202;-81
2021/03/15 06:55:46;;;;;;;1.00;1.00;;;6.90;99.90;;;;;;4919230;29;20668;-76
2021/03/15 06:58:25;;;;;;;1.00;1.00;;;6.90;99.90;;;;;;4916049;29;20699;-77
2021/03/15 07:01:13;;;;;;;0.90;0.90;;;7.00;99.90;;;;;;4915968;29;20222;-76
2021/03/15 07:03:41;;;;;;;1.10;1.10;;;7.20;99.90;;;;;;4915476;29;20206;-77
2021/03/15 07:06:10;;;;;;;1.17;1.17;;;7.00;99.90;;;;;;4915080;29;20213;-76
2021/03/15 07:08:37;;;;;;;1.07;1.07;;;7.00;99.90;;;;;;4918551;29;20264;-77
2021/03/15 07:11:23;;;;;;;1.17;1.17;;;7.10;99.90;;;;;;4920286;29;20313;-77
2021/03/15 07:13:51;;;;;;;1.10;1.10;;;7.10;99.90;;;;;;4918620;29;20638;-76
2021/03/15 07:16:26;;;;;;;0.90;0.90;;;7.10;99.90;;;;;;4918553;29;20227;-77
2021/03/15 07:18:53;;;;;;;1.13;1.13;;;7.00;99.90;;;;;;4916050;29;20215;-76
2021/03/15 07:21:36;;;;;;;0.90;0.90;;;7.00;99.90;;;;;;4929272;29;20276;-76
2021/03/15 07:24:08;;;;;;;1.10;1.10;;;7.20;99.90;;;;;;4902807;29;20211;-75
2021/03/15 07:26:37;;;;;;;1.00;1.00;;;7.30;99.90;;;;;;4900386;29;20207;-76
2021/03/15 07:29:10;;;;;;;0.90;0.90;;;7.20;99.90;;;;;;4899682;29;20276;-77
2021/03/15 07:31:37;;;;;;;1.00;1.00;;;7.20;99.90;;;;;;4899431;29;20238;-76
2021/03/15 07:34:13;;;;;;;1.10;1.10;;;7.20;99.90;;;;;;4899566;29;20207;-76
2021/03/15 07:36:49;;;;;;;1.20;1.20;;;7.20;99.90;;;;;;4899432;29;20207;-76
2021/03/15 07:39:17;;;;;;;1.10;1.10;;;7.20;99.90;;;;;;4907193;29;20199;-76
2021/03/15 07:41:46;;;;;;;0.93;0.93;;;7.10;99.90;;;;;;4899297;29;20234;-76
2021/03/15 07:44:26;;;;;;;1.10;1.10;;;7.10;99.90;;;;;;4899423;29;20211;-77
2021/03/15 07:46:54;;;;;;;0.90;0.90;;;7.00;99.90;;;;;;4911379;29;20215;-77
2021/03/15 07:49:32;;;;;;;0.87;0.87;;;7.20;99.90;;;;;;4921265;29;20219;-76
2021/03/15 07:52:02;;;;;;;1.10;1.10;;;6.90;99.90;;;;;;4912163;29;20643;-76
2021/03/15 07:54:32;;;;;;;1.10;1.10;;;6.90;99.90;;;;;;4918003;29;20207;-77
2021/03/15 07:57:16;;;;;;;1.20;1.20;;;7.00;99.90;;;;;;4915713;29;20214;-77
2021/03/15 07:59:44;;;;;;;1.10;1.10;;;7.30;99.90;;;;;;4918737;29;20467;-77
2021/03/15 08:02:15;;;;;;;1.07;1.07;;;7.20;99.90;;;;;;4913829;29;20279;-76
2021/03/15 08:04:43;;;;;;;1.00;1.00;;;7.20;99.90;;;;;;4915279;29;20282;-76
2021/03/15 08:07:12;;;;;;;0.90;0.90;;;7.40;99.90;;;;;;4929081;29;20206;-77
2021/03/15 08:09:42;;;;;;;0.90;0.90;;;7.50;99.90;;;;;;4925145;29;20272;-77
2021/03/15 08:12:11;;;;;;;1.00;1.00;;;7.50;99.90;;;;;;4897030;29;20239;-76
2021/03/15 08:14:42;;;;;;;1.00;1.00;;;7.70;99.90;;;;;;4898648;29;20214;-77
2021/03/15 08:17:11;;;;;;;1.00;1.00;;;7.60;99.90;;;;;;4898352;29;20207;-77
2021/03/15 08:19:40;;;;;;;1.00;1.00;;;7.50;99.90;;;;;;4898510;29;20218;-76
2021/03/15 08:22:12;;;;;;;1.00;1.00;;;7.60;99.90;;;;;;4898560;29;20239;-76
2021/03/15 08:24:40;;;;;;;1.07;1.07;;;7.80;99.90;;;;;;4895294;29;20216;-76
2021/03/15 08:27:08;;;;;;;1.10;1.10;;;7.70;99.90;;;;;;4880201;29;20211;-76
2021/03/15 08:29:39;;;;;;;1.00;1.00;;;7.20;99.90;;;;;;4887892;29;20263;-76
2021/03/15 08:32:07;;;;;;;1.20;1.20;;;7.20;99.90;;;;;;4898280;29;20228;-76
2021/03/15 08:34:38;;;;;;;1.20;1.20;;;6.90;99.90;;;;;;4897871;29;20298;-75
2021/03/15 08:37:05;;;;;;;0.90;0.90;;;7.10;99.90;;;;;;4892080;29;20236;-76
2021/03/15 08:39:35;;;;;;;1.00;1.00;;;7.20;99.90;;;;;;4910551;29;20308;-77
2021/03/15 08:42:25;;;;;;;1.23;1.23;;;7.60;99.90;;;;;;4897514;29;20771;-77
2021/03/15 08:45:36;;;;;;;1.00;1.00;;;7.40;99.90;;;;;;4879624;29;20596;-76
2021/03/15 08:48:03;;;;;;;0.90;0.90;;;7.50;99.90;;;;;;4868757;29;20285;-76
2021/03/15 08:50:45;;;;;;;1.03;1.03;;;7.60;99.90;;;;;;4879621;29;20223;-78
2021/03/15 08:53:45;;;;;;;1.10;1.10;;;7.70;99.90;;;;;;4878415;29;20631;-76
2021/03/15 08:56:24;;;;;;;1.20;1.20;;;7.60;99.90;;;;;;4887924;29;20234;-76
2021/03/15 08:58:52;;;;;;;1.00;1.00;;;;;;;;;;4897746;29;20218;-76
2021/03/15 09:01:20;;;;;;;0.90;0.90;;;7.80;99.90;;;;;;4882363;29;20224;-76
2021/03/15 09:03:49;;;;;;;1.10;1.10;;;7.90;99.90;;;;;;4877753;29;20251;-76
2021/03/15 09:06:47;;;;;;;0.90;0.90;;;7.60;99.90;;;;;;4879050;29;20287;-76
2021/03/15 09:09:24;;;;;;;1.03;1.03;;;7.90;99.90;;;;;;4879141;29;20208;-76
2021/03/15 09:11:52;;;;;;;1.00;1.00;;;7.90;99.90;;;;;;4898548;29;20606;-77
2021/03/15 09:14:37;;;;;;;1.00;1.00;;;8.10;99.90;;;;;;4920566;29;20211;-76
2021/03/15 09:17:32;;;;;;;1.00;1.00;;;8.60;99.90;;;;;;4916375;29;20233;-76
2021/03/15 09:20:19;;;;;;;1.20;1.20;;;7.60;99.90;;;;;;4883336;29;20676;-76
2021/03/15 09:22:46;;;;;;;1.10;1.10;;;7.60;99.90;;;;;;4916168;29;20262;-76
2021/03/15 09:25:21;;;;;;;1.10;1.10;;;7.60;99.90;;;;;;4912646;29;20720;-76
2021/03/15 09:27:53;;;;;;;1.17;1.17;;;7.80;99.90;;;;;;4917197;29;20664;-76
2021/03/15 09:30:24;;;;;;;1.07;1.07;;;8.00;99.90;;;;;;4914989;29;20227;-76
2021/03/15 09:32:53;;;;;;;1.00;1.00;;;8.10;99.90;;;;;;4914548;29;20270;-76
2021/03/15 09:35:29;;;;;;;1.07;1.07;;;7.80;99.90;;;;;;4925424;29;20261;-76
2021/03/15 09:38:02;;;;;;;0.90;0.90;;;7.60;99.90;;;;;;4911267;29;20706;-76
2021/03/15 09:40:35;;;;;;;1.10;1.10;;;7.70;99.90;;;;;;4905749;29;20195;-76
2021/03/15 09:43:22;;;;;;;1.00;1.00;;;7.60;99.90;;;;;;4916265;29;20206;-77
2021/03/15 09:45:54;;;;;;;0.90;0.90;;;7.20;99.90;;;;;;4916687;29;20254;-77
2021/03/15 09:48:23;;;;;;;1.13;1.13;;;6.90;99.90;;;;;;4917528;29;20217;-78
2021/03/15 09:50:51;;;;;;;1.00;1.00;;;6.60;99.90;;;;;;4920304;29;20230;-77
2021/03/15 09:53:19;;;;;;;1.00;1.00;;;6.90;99.90;;;;;;4917972;29;20211;-77
2021/03/15 09:55:47;;;;;;;1.00;1.00;;;;;;;;;;4916980;29;20199;-78
2021/03/15 09:58:16;;;;;;;1.10;1.10;;;6.60;99.90;;;;;;4918028;29;20353;-76
2021/03/15 10:00:45;;;;;;;1.10;1.10;;;6.30;99.90;;;;;;4902546;29;20279;-77
2021/03/15 10:03:20;;;;;;;1.00;1.00;;;6.70;99.90;;;;;;4899144;29;20498;-78
2021/03/15 10:05:48;;;;;;;1.20;1.20;;;6.70;99.90;;;;;;4907374;29;20198;-78
2021/03/15 10:08:15;;;;;;;1.37;1.37;;;;;;;;;;4922129;29;20214;-78
2021/03/15 10:10:42;;;;;;;1.20;1.20;;;;;;;;;;4919366;29;20262;-79
2021/03/15 10:13:09;;;;;;;1.00;1.00;;;7.50;99.90;;;;;;4906814;29;20240;-78
2021/03/15 10:15:37;;;;;;;1.00;1.00;;;;;;;;;;4915590;29;20608;-78
2021/03/15 10:18:06;;;;;;;0.90;0.90;;;6.50;99.90;;;;;;4917279;29;20210;-78
2021/03/15 10:20:37;;;;;;;1.30;1.30;;;7.40;99.90;;;;;;4917670;29;20739;-77
2021/03/15 10:23:12;;;;;;;0.90;0.90;;;7.30;99.90;;;;;;4916454;29;20211;-79
2021/03/15 10:25:40;;;;;;;1.00;1.00;;;7.60;99.90;;;;;;4920478;29;20210;-77
2021/03/15 10:28:07;;;;;;;0.90;0.90;;;7.70;99.90;;;;;;4914976;29;20214;-77
2021/03/15 10:30:35;;;;;;;1.00;1.00;;;7.60;99.90;;;;;;4915257;29;20231;-76
2021/03/15 10:33:03;;;;;;;1.03;1.03;;;7.70;99.90;;;;;;4915413;29;20206;-76
2021/03/15 10:35:33;;;;;;;1.00;1.00;;;7.70;99.90;;;;;;4915063;29;20207;-75
2021/03/15 10:38:02;;;;;;;1.00;1.00;;;7.70;99.90;;;;;;4911066;29;20301;-75
2021/03/15 10:40:30;;;;;;;1.00;1.00;;;7.80;99.90;;;;;;4909239;29;20199;-75
2021/03/15 10:43:02;;;;;;;1.10;1.10;;;;;;;;;;4918537;29;20210;-76
2021/03/15 10:45:29;;;;;;;0.90;0.90;;;7.70;99.90;;;;;;4915571;29;20218;-75
2021/03/15 10:48:00;;;;;;;1.03;1.03;;;7.70;99.90;;;;;;4914733;29;20254;-75
2021/03/15 10:50:29;;;;;;;0.93;0.93;;;7.60;99.90;;;;;;4914566;29;20313;-76
2021/03/15 10:52:57;;;;;;;1.03;1.03;;;7.40;99.90;;;;;;4915035;29;20258;-75
2021/03/15 10:55:31;;;;;;;0.90;0.90;;;7.30;99.90;;;;;;4915467;29;20258;-77
2021/03/15 10:58:09;;;;;;;1.03;1.03;;;7.10;99.90;;;;;;4916857;29;20213;-77
2021/03/15 11:00:37;;;;;;;1.20;1.20;;;7.20;99.90;;;;;;4915904;29;20603;-78
2021/03/15 11:03:06;;;;;;;0.93;0.93;;;7.40;99.90;;;;;;4915760;29;20210;-77
2021/03/15 11:05:33;;;;;;;0.90;0.90;;;7.50;99.90;;;;;;4916559;29;20557;-79
2021/03/15 11:08:01;;;;;;;1.10;1.10;;;7.50;99.90;;;;;;4916023;29;20254;-74
2021/03/15 11:10:30;;;;;;;1.23;1.23;;;7.20;99.90;;;;;;4916038;29;20227;-82
2021/03/15 11:12:57;;;;;;;1.10;1.10;;;;;;;;;;4916703;29;20583;-76
2021/03/15 11:15:33;;;;;;;0.93;0.93;;;7.30;99.90;;;;;;4915355;29;20258;-77
2021/03/15 11:18:04;;;;;;;1.03;1.03;;;7.10;99.90;;;;;;4915344;29;20289;-77
2021/03/15 11:20:40;;;;;;;1.10;1.10;;;7.50;99.90;;;;;;4915836;29;20235;-77
2021/03/15 11:23:09;;;;;;;1.20;1.20;;;7.60;99.90;;;;;;4918378;29;20270;-78
2021/03/15 11:25:37;;;;;;;1.10;1.10;;;7.60;99.90;;;;;;4922274;29;20213;-76
2021/03/15 11:28:10;;;;;;;1.20;1.20;;;7.80;99.90;;;;;;4918045;29;20215;-76
2021/03/15 11:30:38;;;;;;;1.00;1.00;;;7.80;99.90;;;;;;4915625;29;20317;-76
2021/03/15 11:33:08;;;;;;;1.00;1.00;;;7.60;99.90;;;;;;4914669;29;20214;-77
2021/03/15 11:35:37;;;;;;;1.00;1.00;;;7.40;99.90;;;;;;4898005;29;20270;-77
2021/03/15 11:38:05;;;;;;;0.90;0.90;;;7.30;99.90;;;;;;4895672;29;20207;-77
2021/03/15 11:40:36;;;;;;;1.00;1.00;;;7.10;99.90;;;;;;4895473;29;20725;-77
2021/03/15 11:43:03;;;;;;;1.03;1.03;;;7.20;99.90;;;;;;4895849;29;20218;-77
2021/03/15 11:45:31;;;;;;;1.13;1.13;;;7.40;99.90;;;;;;4896883;29;20208;-76
2021/03/15 11:47:59;;;;;;;1.00;1.00;;;;;;;;;;4896386;29;20207;-76
2021/03/15 11:50:28;;;;;;;1.00;1.00;;;7.60;99.90;;;;;;4896735;29;20578;-77
2021/03/15 11:52:56;;;;;;;0.90;0.90;;;7.40;99.90;;;;;;4897820;29;20242;-77
2021/03/15 11:55:24;;;;;;;0.87;0.87;;;7.50;99.90;;;;;;4901816;29;20203;-78
2021/03/15 11:57:52;;;;;;;1.10;1.10;;;7.50;99.90;;;;;;4900314;29;20573;-76
2021/03/15 12:00:21;;;;;;;1.10;1.10;;;7.40;99.90;;;;;;4905047;29;20226;-79
2021/03/15 12:02:49;;;;;;;1.13;1.13;;;7.40;99.90;;;;;;4901660;29;20211;-80
2021/03/15 12:05:17;;;;;;;1.00;1.00;;;7.40;99.90;;;;;;4900897;29;20290;-80
2021/03/15 12:07:45;;;;;;;1.20;1.20;;;7.30;99.90;;;;;;4902410;29;20208;-79
2021/03/15 12:10:13;;;;;;;1.10;1.10;;;7.20;99.90;;;;;;4901483;29;20712;-79
2021/03/15 12:12:41;;;;;;;1.20;1.20;;;7.70;99.90;;;;;;4908225;29;20203;-77
2021/03/15 12:15:26;;;;;;;1.23;1.23;;;7.00;99.90;;;;;;4918713;29;20206;-78
2021/03/15 12:18:14;;;;;;;1.00;1.00;;;;;;;;;;4918298;29;20299;-77
2021/03/15 12:20:41;;;;;;;1.00;1.00;;;7.40;99.90;;;;;;4918739;29;20266;-77
2021/03/15 12:23:08;;;;;;;1.00;1.00;;;7.60;99.90;;;;;;4918539;29;20691;-77
2021/03/15 12:25:37;;;;;;;1.20;1.20;;;7.80;99.90;;;;;;4918580;29;20274;-78
2021/03/15 12:28:05;;;;;;;1.20;1.20;;;7.80;99.90;;;;;;4918507;29;20214;-77
2021/03/15 12:30:33;;;;;;;0.90;0.90;;;7.90;99.90;;;;;;4919707;29;20226;-77
2021/03/15 12:33:20;;;;;;;1.20;1.20;;;8.00;99.90;;;;;;4918787;29;20290;-78
2021/03/15 12:35:47;;;;;;;1.00;1.00;;;8.20;99.90;;;;;;4918600;29;20199;-77
2021/03/15 12:38:14;;;;;;;0.97;0.97;;;8.10;99.90;;;;;;4919273;29;20218;-77
2021/03/15 12:40:41;;;;;;;1.00;1.00;;;8.00;99.90;;;;;;4919093;29;20514;-77
2021/03/15 12:43:08;;;;;;;1.00;1.00;;;;;;;;;;4919062;29;20230;-78
2021/03/15 12:45:50;;;;;;;1.00;1.00;;;7.60;99.90;;;;;;4918442;29;20207;-77
2021/03/15 12:48:17;;;;;;;0.90;0.90;;;7.50;99.90;;;;;;4917807;29;20218;-77
2021/03/15 12:50:45;;;;;;;0.93;0.93;;;;;;;;;;4917868;29;20735;-77
2021/03/15 12:53:12;;;;;;;1.03;1.03;;;;;;;;;;4916843;29;20211;-77
2021/03/15 12:55:40;;;;;;;1.00;1.00;;;7.30;99.90;;;;;;4918277;29;20207;-77
2021/03/15 12:58:07;;;;;;;1.17;1.17;;;;;;;;;;4916984;29;20211;-77
2021/03/15 13:00:34;;;;;;;1.10;1.10;;;7.10;99.90;;;;;;4917066;29;20249;-76
2021/03/15 13:03:02;;;;;;;0.90;0.90;;;7.50;99.90;;;;;;4917251;29;20202;-77
2021/03/15 13:05:30;;;;;;;0.97;0.97;;;;;;;;;;4916667;29;20214;-77
2021/03/15 13:07:57;;;;;;;1.13;1.13;;;;;;;;;;4916945;29;20696;-77
2021/03/15 13:10:24;;;;;;;1.20;1.20;;;7.20;99.90;;;;;;4917396;29;20261;-77
2021/03/15 13:12:51;;;;;;;1.00;1.00;;;;;;;;;;4917682;29;20207;-77
2021/03/15 13:15:18;;;;;;;1.20;1.20;;;7.10;99.90;;;;;;4918338;29;20214;-79
2021/03/15 13:17:49;;;;;;;1.13;1.13;;;;;;;;;;4918492;29;20211;-77
2021/03/15 13:20:18;;;;;;;1.20;1.20;;;7.20;99.90;;;;;;4916944;29;20262;-76
2021/03/15 13:22:46;;;;;;;1.30;1.30;;;7.30;99.90;;;;;;4916688;29;20210;-76
2021/03/15 13:25:13;;;;;;;1.23;1.23;;;7.30;99.90;;;;;;4916884;29;20207;-76
2021/03/15 13:27:41;;;;;;;1.10;1.10;;;7.30;99.90;;;;;;4916749;29;20672;-76
2021/03/15 13:30:09;;;;;;;1.20;1.20;;;7.30;99.90;;;;;;4917515;29;20207;-77
2021/03/15 13:32:36;;;;;;;1.00;1.00;;;7.80;99.90;;;;;;4918260;29;20238;-77
2021/03/15 13:35:05;;;;;;;1.30;1.30;;;8.00;99.90;;;;;;4904092;29;20211;-77
2021/03/15 13:37:33;;;;;;;0.93;0.93;;;8.00;99.90;;;;;;4899934;29;20207;-76
2021/03/15 13:40:00;;;;;;;1.10;1.10;;;;;;;;;;4897765;29;20211;-76
2021/03/15 13:42:27;;;;;;;1.20;1.20;;;7.90;99.90;;;;;;4896993;29;20247;-77
2021/03/15 13:44:54;;;;;;;1.00;1.00;;;;;;;;;;4914222;29;20639;-76
2021/03/15 13:47:21;;;;;;;1.10;1.10;;;7.70;99.90;;;;;;4916516;29;20635;-77
2021/03/15 13:49:48;;;;;;;1.20;1.20;;;7.70;99.90;;;;;;4916231;29;20211;-77
2021/03/15 13:52:17;;;;;;;1.00;1.00;;;7.90;99.90;;;;;;4916804;29;20235;-77
2021/03/15 13:54:45;;;;;;;1.00;1.00;;;7.80;99.90;;;;;;4916585;29;20649;-77
2021/03/15 13:57:12;;;;;;;1.03;1.03;;;8.00;99.90;;;;;;4918728;29;20243;-77
2021/03/15 13:59:40;;;;;;;1.00;1.00;;;;;;;;;;4917794;29;20211;-78
2021/03/15 14:02:08;;;;;;;1.00;1.00;;;7.60;99.90;;;;;;4919004;29;20395;-77
2021/03/15 14:04:39;;;;;;;1.00;1.00;;;7.70;99.90;;;;;;4919568;29;20297;-77
2021/03/15 14:07:07;;;;;;;1.10;1.10;;;7.90;99.90;;;;;;4916354;29;20279;-76
2021/03/15 14:09:34;;;;;;;1.00;1.00;;;7.70;99.90;;;;;;4915961;29;20214;-75
2021/03/15 14:12:01;;;;;;;1.10;1.10;;;8.10;99.90;;;;;;4916256;29;20242;-76
2021/03/15 14:14:29;;;;;;;1.00;1.00;;;;;;;;;;4915940;29;20577;-76
2021/03/15 14:17:02;;;;;;;1.13;1.13;;;8.30;99.90;;;;;;4906750;29;20213;-76
2021/03/15 14:19:29;;;;;;;1.10;1.10;;;8.10;99.90;;;;;;4915490;29;20554;-76
2021/03/15 14:21:56;;;;;;;1.20;1.20;;;8.20;99.90;;;;;;4914963;29;20227;-76
2021/03/15 14:24:23;;;;;;;1.10;1.10;;;8.00;99.90;;;;;;4915246;29;20214;-76
2021/03/15 14:26:50;;;;;;;1.00;1.00;;;8.00;99.90;;;;;;4915322;29;20214;-76
2021/03/15 14:29:18;;;;;;;1.00;1.00;;;8.20;99.90;;;;;;4915360;29;20728;-76
2021/03/15 14:31:45;;;;;;;0.87;0.87;;;;;;;;;;4915297;29;20250;-76
2021/03/15 14:34:12;;;;;;;1.10;1.10;;;8.30;99.90;;;;;;4915063;29;20207;-76
2021/03/15 14:36:39;;;;;;;1.00;1.00;;;;;;;;;;4909476;29;20207;-76
2021/03/15 14:39:07;;;;;;;1.00;1.00;;;8.40;99.90;;;;;;4914737;29;20296;-76
2021/03/15 14:41:34;;;;;;;1.10;1.10;;;8.40;99.90;;;;;;4914704;29;20655;-76
2021/03/15 14:44:01;;;;;;;1.23;1.23;;;8.80;99.90;;;;;;4914989;29;20207;-76
2021/03/15 14:46:29;;;;;;;1.07;1.07;;;8.60;99.90;;;;;;4915161;29;20214;-76
2021/03/15 14:48:56;;;;;;;1.00;1.00;;;8.50;99.90;;;;;;4915028;29;20302;-76
2021/03/15 14:51:24;;;;;;;1.13;1.13;;;8.80;99.90;;;;;;4914951;29;20318;-76
2021/03/15 14:53:51;;;;;;;1.13;1.13;;;9.10;99.90;;;;;;4915091;29;20254;-76
2021/03/15 14:56:18;;;;;;;1.00;1.00;;;8.80;99.90;;;;;;4914942;29;20262;-76
2021/03/15 14:58:44;;;;;;;0.98;0.98;;;9.00;99.90;;;;;;4914466;29;20211;-76
2021/03/15 15:01:11;;;;;;;1.00;1.00;;;9.10;99.90;;;;;;4914106;29;20666;-76
2021/03/15 15:03:58;;;;;;;1.10;1.10;;;9.10;99.90;;;;;;4913750;29;20285;-76
2021/03/15 15:06:25;;;;;;;0.85;0.85;;;9.00;99.90;;;;;;4909886;29;20215;-76
2021/03/15 15:08:52;;;;;;;0.98;0.98;;;8.90;99.90;;;;;;4908762;29;20199;-76
2021/03/15 15:11:19;;;;;;;1.00;1.00;;;9.10;99.90;;;;;;4915900;29;20660;-80
2021/03/15 15:13:46;;;;;;;0.88;0.88;;;9.30;99.90;;;;;;4916480;29;20211;-77
2021/03/15 15:16:13;;;;;;;0.80;0.80;;;9.60;99.90;;;;;;4917714;29;20217;-77
2021/03/15 15:18:41;;;;;;;1.00;1.00;;;9.70;99.90;;;;;;4915991;29;20237;-74
2021/03/15 15:21:09;;;;;;;0.90;0.90;;;9.50;99.90;;;;;;4915745;29;20222;-77
2021/03/15 15:23:36;;;;;;;1.10;1.10;;;9.60;99.90;;;;;;4916867;29;20264;-77
2021/03/15 15:26:03;;;;;;;0.95;0.95;;;9.50;99.90;;;;;;4918016;29;20210;-77
2021/03/15 15:28:30;;;;;;;0.90;0.90;;;9.30;99.90;;;;;;4918872;29;20210;-78
2021/03/15 15:30:57;;;;;;;0.90;0.90;;;9.80;99.90;;;;;;4926162;29;20230;-79
2021/03/15 15:33:24;;;;;;;1.15;1.15;;;9.10;99.90;;;;;;4919152;29;20199;-76
2021/03/15 15:35:52;;;;;;;0.80;0.80;;;9.10;99.90;;;;;;4905020;29;20214;-78
2021/03/15 15:38:19;;;;;;;0.90;0.90;;;9.30;99.90;;;;;;4921172;29;20202;-79
2021/03/15 15:40:47;;;;;;;0.93;0.93;;;;;;;;;;4928254;29;20294;-79
2021/03/15 15:43:13;;;;;;;1.10;1.10;;;9.30;99.90;;;;;;4932236;29;20230;-78
2021/03/15 15:45:40;;;;;;;1.00;1.00;;;9.00;99.90;;;;;;4931646;29;20297;-78
2021/03/15 15:48:08;;;;;;;0.90;0.90;;;9.00;99.90;;;;;;4931019;29;20213;-78
2021/03/15 15:50:35;;;;;;;1.10;1.10;;;8.80;99.90;;;;;;4930931;29;20227;-78
2021/03/15 15:53:02;;;;;;;0.90;0.90;;;8.60;99.90;;;;;;4929649;29;20238;-78
2021/03/15 15:55:30;;;;;;;0.88;0.88;;;8.70;99.90;;;;;;4932078;29;20210;-78
2021/03/15 15:57:57;;;;;;;1.05;1.05;;;;;;;;;;4928416;29;20207;-78
2021/03/15 16:00:25;;;;;;;0.93;0.93;;;8.70;99.90;;;;;;4930342;29;20210;-78
2021/03/15 16:02:52;;;;;;;0.90;0.90;;;8.70;99.90;;;;;;4929998;29;20203;-78
2021/03/15 16:05:23;;;;;;;0.90;0.90;;;8.50;99.90;;;;;;4928142;29;20234;-78
2021/03/15 16:07:50;;;;;;;1.10;1.10;;;8.90;99.90;;;;;;4928709;29;20211;-78
2021/03/15 16:10:18;;;;;;;0.93;0.93;;;8.70;99.90;;;;;;4920463;29;20192;-78
2021/03/15 16:12:46;;;;;;;0.90;0.90;;;8.70;99.90;;;;;;4920717;29;20231;-78
2021/03/15 16:15:16;;;;;;;1.00;1.00;;;8.70;99.90;;;;;;4914559;29;20203;-78
2021/03/15 16:18:03;;;;;;;0.90;0.90;;;8.50;99.90;;;;;;4917927;29;20252;-78
2021/03/15 16:20:31;;;;;;;1.10;1.10;;;;;;;;;;4915361;29;20689;-77
2021/03/15 16:22:58;;;;;;;1.10;1.10;;;8.20;99.90;;;;;;4918733;29;20206;-76
2021/03/15 16:25:25;;;;;;;1.02;1.02;;;;;;;;;;4918882;29;20199;-77
2021/03/15 16:27:55;;;;;;;1.00;1.00;;;8.30;99.90;;;;;;4923033;29;20214;-78
2021/03/15 16:30:23;;;;;;;1.03;1.03;;;8.70;99.90;;;;;;4924780;29;20217;-78
2021/03/15 16:32:50;;;;;;;1.08;1.08;;;8.60;99.90;;;;;;4927756;29;20226;-79
2021/03/15 16:35:18;;;;;;;0.80;0.80;;;;;;;;;;4927951;29;20255;-79
2021/03/15 16:37:45;;;;;;;0.82;0.82;;;8.30;99.90;;;;;;4926435;29;20743;-79
2021/03/15 16:40:13;;;;;;;1.10;1.10;;;8.40;99.90;;;;;;4925072;29;20211;-78
2021/03/15 16:42:40;;;;;;;0.90;0.90;;;8.90;99.90;;;;;;4925802;29;20226;-78
2021/03/15 16:45:09;;;;;;;0.80;0.80;;;8.50;99.90;;;;;;4925803;29;20688;-77
2021/03/15 16:47:37;;;;;;;0.93;0.93;;;;;;;;;;4925466;29;20277;-78
2021/03/15 16:50:10;;;;;;;1.10;1.10;;;8.00;99.90;;;;;;4924200;29;20211;-78
2021/03/15 16:52:37;;;;;;;1.00;1.00;;;;;;;;;;4926857;29;20643;-78
2021/03/15 16:55:05;;;;;;;0.90;0.90;;;8.00;99.90;;;;;;4927408;29;20214;-78
2021/03/15 16:57:33;;;;;;;1.00;1.00;;;;;;;;;;4926865;29;20202;-78
2021/03/15 17:00:00;;;;;;;0.97;0.97;;;8.10;99.90;;;;;;4925847;29;20210;-78
2021/03/15 17:02:27;;;;;;;0.93;0.93;;;8.00;99.90;;;;;;4925212;29;20278;-78
2021/03/15 17:04:55;;;;;;;0.90;0.90;;;;;;;;;;4924959;29;20203;-78
2021/03/15 17:07:22;;;;;;;0.90;0.90;;;8.20;99.90;;;;;;4926212;29;20211;-79
2021/03/15 17:09:48;;;;;;;1.00;1.00;;;8.00;99.90;;;;;;4920770;29;20265;-77
2021/03/15 17:12:16;;;;;;;1.00;1.00;;;8.10;99.90;;;;;;4916894;29;20266;-77
2021/03/15 17:14:43;;;;;;;1.00;1.00;;;;;;;;;;4916901;29;20233;-77
2021/03/15 17:17:10;;;;;;;0.90;0.90;;;8.10;99.90;;;;;;4919418;29;20207;-77
2021/03/15 17:19:57;;;;;;;1.00;1.00;;;7.80;99.90;;;;;;4914354;29;20198;-76
2021/03/15 17:22:24;;;;;;;1.00;1.00;;;7.20;99.90;;;;;;4916764;29;20219;-78
2021/03/15 17:24:51;;;;;;;1.10;1.10;;;7.60;99.90;;;;;;4900262;29;20211;-79
2021/03/15 17:27:18;;;;;;;1.30;1.30;;;5.70;99.90;;;;;;4904393;29;20219;-79
2021/03/15 17:29:45;;;;;;;1.30;1.30;;;;;;;;;;4918962;29;20203;-81
2021/03/15 17:32:13;;;;;;;1.20;1.20;;;;;;;;;;4919909;29;20317;-78
2021/03/15 17:34:40;;;;;;;1.20;1.20;;;5.00;99.90;;;;;;4917757;29;20202;-78
2021/03/15 17:37:08;;;;;;;1.47;1.47;;;4.90;99.90;;;;;;4918335;29;20198;-77
2021/03/15 17:39:35;;;;;;;1.57;1.57;;;4.80;99.90;;;;;;4915629;29;20202;-78
2021/03/15 17:42:02;;;;;;;1.30;1.30;;;4.80;99.90;;;;;;4919884;29;20218;-79
2021/03/15 17:44:29;;;;;;;1.50;1.50;;;4.90;99.90;;;;;;4920633;29;20202;-80
2021/03/15 17:46:56;;;;;;;1.40;1.40;;;4.90;99.90;;;;;;4919423;29;20626;-76
2021/03/15 17:49:23;;;;;;;1.40;1.40;;;4.90;99.90;;;;;;4919345;29;20240;-80
2021/03/15 17:51:50;;;;;;;1.20;1.20;;;;;;;;;;4918555;29;20289;-79
2021/03/15 17:54:18;;;;;;;1.30;1.30;;;4.80;99.90;;;;;;4917093;29;20222;-77
2021/03/15 17:56:45;;;;;;;1.30;1.30;;;4.80;99.90;;;;;;4920238;29;20211;-77
2021/03/15 17:59:12;;;;;;;1.30;1.30;;;4.80;99.90;;;;;;4920587;29;20214;-78
2021/03/15 18:01:40;;;;;;;1.40;1.40;;;4.90;99.90;;;;;;4911292;29;20214;-78
2021/03/15 18:04:07;;;;;;;1.17;1.17;;;4.90;99.90;;;;;;4918793;29;20380;-77
2021/03/15 18:06:34;;;;;;;1.27;1.27;;;4.90;99.90;;;;;;4920194;29;20281;-79
2021/03/15 18:09:01;;;;;;;1.40;1.40;;;4.90;99.90;;;;;;4915450;29;20222;-79
2021/03/15 18:11:29;;;;;;;1.40;1.40;;;5.00;99.90;;;;;;4908902;29;20269;-77
2021/03/15 18:13:56;;;;;;;1.40;1.40;;;5.00;99.90;;;;;;4915111;29;20223;-79
2021/03/15 18:16:24;;;;;;;1.30;1.30;;;5.00;99.90;;;;;;4909799;29;20224;-80
2021/03/15 18:18:51;;;;;;;1.30;1.30;;;5.00;99.90;;;;;;4904435;29;20210;-79
2021/03/15 18:21:20;;;;;;;1.40;1.40;;;4.90;99.90;;;;;;4919689;29;20235;-82
2021/03/15 18:23:47;;;;;;;1.50;1.50;;;5.00;99.90;;;;;;4920598;29;20214;-79
2021/03/15 18:26:14;;;;;;;1.53;1.53;;;5.00;99.90;;;;;;4920872;29;20202;-77
2021/03/15 18:28:42;;;;;;;1.27;1.27;;;4.90;99.90;;;;;;4919907;29;20217;-80
2021/03/15 18:31:10;;;;;;;1.50;1.50;;;;;;;;;;4919049;29;20234;-77
2021/03/15 18:33:37;;;;;;;1.40;1.40;;;;;;;;;;4917935;29;20211;-78
2021/03/15 18:36:05;;;;;;;1.37;1.37;;;4.90;99.90;;;;;;4919884;29;20579;-81